Time;durP1;ratioP1;P1;durP2;ratioP2;P2;SDS_P1;SDS_P2;PMS_P1;PMS_P2;Temp;Humidity;BMP_temperature;BMP_pressure;BME280_temperature;BME280_humidity;BME280_pressure;Samples;Min_cycle;Max_cycle;Signal;HPM_P1;HPM_P2
2022/08/05 00:03:18;;;;;;;;;;;22.50;99.90;;;;;;8466894;28;20348;-71
2022/08/05 00:07:20;;;;;;;;;;;22.50;99.90;;;;;;8443593;28;20298;-71
2022/08/05 00:11:41;;;;;;;;;;;22.40;99.90;;;;;;8457156;28;19920;-71
2022/08/05 00:15:49;;;;;;;;;;;22.40;99.90;;;;;;8464142;28;20435;-71
2022/08/05 00:19:56;;;;;;;;;;;22.30;99.90;;;;;;8463672;28;19926;-71
2022/08/05 00:24:03;;;;;;;;;;;22.30;99.90;;;;;;8466663;28;19923;-71
2022/08/05 00:28:11;;;;;;;;;;;22.20;99.90;;;;;;8459472;28;19999;-71
2022/08/05 00:37:16;;;;;;;;;;;22.20;99.90;;;;;;8447259;28;20370;-71
2022/08/05 00:41:28;;;;;;;;;;;22.20;99.90;;;;;;8455092;28;19919;-71
2022/08/05 00:45:30;;;;;;;;;;;22.20;99.90;;;;;;8454802;28;20374;-71
2022/08/05 00:49:43;;;;;;;;;;;22.20;99.90;;;;;;8463943;28;20295;-71
2022/08/05 00:59:01;;;;;;;;;;;22.10;99.90;;;;;;8456845;28;20370;-71
2022/08/05 01:03:03;;;;;;;;;;;22.10;99.90;;;;;;8465710;28;19923;-71
2022/08/05 01:07:08;;;;;;;;;;;22.10;99.90;;;;;;8457390;28;19919;-71
2022/08/05 01:11:20;;;;;;;;;;;22.00;99.90;;;;;;8445196;28;19927;-72
2022/08/05 01:15:36;;;;;;;;;;;22.00;99.90;;;;;;8460204;28;19927;-71
2022/08/05 01:20:01;;;;;;;;;;;22.00;99.90;;;;;;8463008;28;20396;-71
2022/08/05 01:24:12;;;;;;;;;;;22.00;99.90;;;;;;8465141;28;19920;-71
2022/08/05 01:28:17;;;;;;;;;;;22.00;99.90;;;;;;8463760;28;19919;-71
2022/08/05 01:32:21;;;;;;;;;;;21.90;99.90;;;;;;8464013;28;20290;-71
2022/08/05 01:36:25;;;;;;;;;;;21.90;99.90;;;;;;8452417;28;20299;-71
2022/08/05 01:40:29;;;;;;;;;;;21.90;99.90;;;;;;8456888;28;19919;-71
2022/08/05 01:50:06;;;;;;;;;;;21.90;99.90;;;;;;8456870;28;19918;-71
2022/08/05 01:54:08;;;;;;;;;;;21.90;99.90;;;;;;8469695;27;19927;-71
2022/08/05 01:58:12;;;;;;;;;;;21.80;99.90;;;;;;8463450;28;19962;-71
2022/08/05 02:02:18;;;;;;;;;;;21.80;99.90;;;;;;8463524;28;19927;-71
2022/08/05 02:06:20;;;;;;;;;;;21.70;99.90;;;;;;8447110;28;19920;-71
2022/08/05 02:20:52;;;;;;;;;;;21.60;99.90;;;;;;8455471;28;19977;-71
2022/08/05 02:25:01;;;;;;;;;;;21.60;99.90;;;;;;8462552;28;20351;-71
2022/08/05 02:29:03;;;;;;;;;;;21.60;99.90;;;;;;8461378;28;20022;-71
2022/08/05 02:33:06;;;;;;;;;;;21.50;99.90;;;;;;8462359;28;19973;-71
2022/08/05 02:37:09;;;;;;;;;;;21.50;99.90;;;;;;8417131;28;19943;-71
2022/08/05 02:41:10;;;;;;;;;;;21.50;99.90;;;;;;8434041;28;19920;-71
2022/08/05 02:45:17;;;;;;;;;;;21.50;99.90;;;;;;8440673;28;19920;-71
2022/08/05 02:49:19;;;;;;;;;;;21.40;99.90;;;;;;8460396;28;19919;-71
2022/08/05 02:53:22;;;;;;;;;;;21.40;99.90;;;;;;8439517;28;20022;-71
2022/08/05 02:57:24;;;;;;;;;;;21.30;99.90;;;;;;8437540;28;19942;-71
2022/08/05 03:01:49;;;;;;;;;;;21.30;99.90;;;;;;8461450;28;19920;-71
2022/08/05 03:16:16;;;;;;;;;;;21.20;99.90;;;;;;8445367;28;19915;-71
2022/08/05 03:20:18;;;;;;;;;;;21.20;99.90;;;;;;8459938;28;20286;-71
2022/08/05 03:24:20;;;;;;;;;;;21.20;99.90;;;;;;8460792;28;19919;-71
2022/08/05 03:28:29;;;;;;;;;;;21.20;99.90;;;;;;8437280;28;20393;-71
2022/08/05 03:32:31;;;;;;;;;;;21.10;99.90;;;;;;8461516;28;19927;-71
2022/08/05 03:36:32;;;;;;;;;;;21.10;99.90;;;;;;8445438;28;19995;-71
2022/08/05 03:40:38;;;;;;;;;;;21.10;99.90;;;;;;8457396;28;19930;-71
2022/08/05 03:44:39;;;;;;;;;;;21.10;99.90;;;;;;8461280;28;20000;-71
2022/08/05 03:48:41;;;;;;;;;;;21.00;99.90;;;;;;8459104;28;19923;-71
2022/08/05 03:52:49;;;;;;;;;;;21.00;99.90;;;;;;8460876;28;19920;-71
2022/08/05 04:07:16;;;;;;;;;;;20.80;99.90;;;;;;8453441;28;20383;-71
2022/08/05 04:11:18;;;;;;;;;;;20.80;99.90;;;;;;8459912;28;19923;-71
2022/08/05 04:15:20;;;;;;;;;;;20.80;99.90;;;;;;8459539;28;19920;-71
2022/08/05 04:19:21;;;;;;;;;;;20.70;99.90;;;;;;8458608;28;19920;-71
2022/08/05 04:23:24;;;;;;;;;;;20.70;99.90;;;;;;8459967;28;20341;-71
2022/08/05 04:27:46;;;;;;;;;;;20.70;99.90;;;;;;8458758;28;19919;-71
2022/08/05 04:31:58;;;;;;;;;;;20.60;99.90;;;;;;8460597;28;20630;-71
2022/08/05 04:36:00;;;;;;;;;;;20.60;99.90;;;;;;8453056;28;19924;-71
2022/08/05 04:40:17;;;;;;;;;;;20.60;99.90;;;;;;8459659;28;19923;-71
2022/08/05 04:44:20;;;;;;;;;;;20.60;99.90;;;;;;8465568;28;19988;-71
2022/08/05 04:48:30;;;;;;;;;;;20.60;99.90;;;;;;8463511;28;20270;-71
2022/08/05 04:52:57;;;;;;;;;;;20.60;99.90;;;;;;8465185;28;19920;-71
2022/08/05 04:56:58;;;;;;;;;;;20.60;99.90;;;;;;8465055;28;19919;-71
2022/08/05 05:01:00;;;;;;;;;;;20.60;99.90;;;;;;8465624;28;19923;-71
2022/08/05 05:05:02;;;;;;;;;;;20.60;99.90;;;;;;8464946;28;19976;-71
2022/08/05 05:09:04;;;;;;;;;;;20.60;99.90;;;;;;8461608;27;20306;-71
2022/08/05 05:13:06;;;;;;;;;;;20.60;99.90;;;;;;8464880;28;19951;-71
2022/08/05 05:17:07;;;;;;;;;;;20.60;99.90;;;;;;8464863;28;19920;-71
2022/08/05 05:21:09;;;;;;;;;;;20.60;99.90;;;;;;8464803;28;19919;-71
2022/08/05 05:25:12;;;;;;;;;;;20.60;99.90;;;;;;8464981;28;19927;-71
2022/08/05 05:29:16;;;;;;;;;;;20.60;99.90;;;;;;8463544;28;19920;-71
2022/08/05 05:33:18;;;;;;;;;;;20.60;99.90;;;;;;8465099;28;19927;-71
2022/08/05 05:37:23;;;;;;;;;;;20.60;99.90;;;;;;8436123;28;19963;-71
2022/08/05 05:41:29;;;;;;;;;;;20.60;99.90;;;;;;8460306;28;19969;-71
2022/08/05 05:45:41;;;;;;;;;;;20.50;99.90;;;;;;8462360;28;19923;-71
2022/08/05 05:49:48;;;;;;;;;;;20.50;99.90;;;;;;8448738;28;20647;-71
2022/08/05 05:53:58;;;;;;;;;;;20.50;99.90;;;;;;8392014;28;19924;-71
2022/08/05 05:58:00;;;;;;;;;;;20.60;99.90;;;;;;8388572;28;19931;-71
2022/08/05 06:02:02;;;;;;;;;;;20.60;99.90;;;;;;8391236;28;19924;-71
2022/08/05 06:06:05;;;;;;;;;;;20.60;99.90;;;;;;8390484;28;19931;-71
2022/08/05 06:10:09;;;;;;;;;;;20.60;99.90;;;;;;8406672;27;21179;-71
2022/08/05 06:14:11;;;;;;;;;;;20.80;99.90;;;;;;8391515;28;19924;-71
2022/08/05 06:18:12;;;;;;;;;;;20.90;99.90;;;;;;8403084;27;19928;-71
2022/08/05 06:22:21;;;;;;;;;;;21.00;99.90;;;;;;8388177;28;19958;-71
2022/08/05 06:26:23;;;;;;;;;;;21.10;99.90;;;;;;8389875;28;19928;-71
2022/08/05 06:30:26;;;;;;;;;;;21.10;99.90;;;;;;8392353;28;19928;-71
2022/08/05 06:34:27;;;;;;;;;;;21.10;99.90;;;;;;8389523;28;20265;-71
2022/08/05 06:38:29;;;;;;;;;;;21.10;99.90;;;;;;8387793;28;20379;-71
2022/08/05 06:42:37;;;;;;;;;;;21.10;99.90;;;;;;8388796;28;19928;-71
2022/08/05 06:46:40;;;;;;;;;;;21.10;99.90;;;;;;8388341;28;19927;-71
2022/08/05 06:50:41;;;;;;;;;;;21.20;99.90;;;;;;8390535;28;20244;-71
2022/08/05 06:54:43;;;;;;;;;;;21.30;99.90;;;;;;8390592;28;19943;-71
2022/08/05 06:58:45;;;;;;;;;;;21.30;99.90;;;;;;8368006;28;20355;-71
2022/08/05 07:02:47;;;;;;;;;;;21.40;99.90;;;;;;8390529;28;20356;-71
2022/08/05 07:06:48;;;;;;;;;;;21.50;99.90;;;;;;8388277;28;20584;-71
2022/08/05 07:10:50;;;;;;;;;;;21.50;99.90;;;;;;8390992;28;19928;-71
2022/08/05 07:19:15;;;;;;;;;;;21.50;99.90;;;;;;8385138;28;19929;-71
2022/08/05 07:23:37;;;;;;;;;;;21.30;99.90;;;;;;8371030;28;20681;-71
2022/08/05 07:27:41;;;;;;;;;;;21.20;99.90;;;;;;8389207;28;19935;-71
2022/08/05 07:31:59;;;;;;;;;;;21.10;99.90;;;;;;8388924;28;19933;-71
2022/08/05 07:36:00;;;;;;;;;;;21.10;99.90;;;;;;8384781;28;20395;-71
2022/08/05 07:40:20;;;;;;;;;;;21.20;99.90;;;;;;8386609;28;19971;-71
2022/08/05 07:44:33;;;;;;;;;;;21.30;99.90;;;;;;8390903;28;19923;-71
2022/08/05 07:48:34;;;;;;;;;;;21.50;99.90;;;;;;8389132;28;19987;-71
2022/08/05 07:52:56;;;;;;;;;;;21.50;99.90;;;;;;8387545;28;19932;-71
2022/08/05 07:56:58;;;;;;;;;;;21.60;99.90;;;;;;8389035;28;19928;-71
2022/08/05 08:01:15;;;;;;;;;;;21.70;99.90;;;;;;8384406;28;19928;-71
2022/08/05 08:05:17;;;;;;;;;;;21.80;99.90;;;;;;8402663;28;19932;-71
2022/08/05 08:09:19;;;;;;;;;;;21.90;99.90;;;;;;8395773;28;20031;-71
2022/08/05 08:13:20;;;;;;;;;;;22.00;99.90;;;;;;8396211;28;19928;-71
2022/08/05 08:17:30;;;;;;;;;;;22.20;99.90;;;;;;8392094;28;20371;-71
2022/08/05 08:21:32;;;;;;;;;;;22.30;99.90;;;;;;8394189;28;20438;-71
2022/08/05 08:25:33;;;;;;;;;;;22.40;99.90;;;;;;8394228;28;19928;-71
2022/08/05 08:29:55;;;;;;;;;;;22.40;99.90;;;;;;8394440;28;19968;-71
2022/08/05 08:34:06;;;;;;;;;;;22.50;99.90;;;;;;8392451;28;20390;-71
2022/08/05 08:38:08;;;;;;;;;;;22.60;99.90;;;;;;8393127;28;19932;-71
2022/08/05 08:42:13;;;;;;;;;;;22.70;99.90;;;;;;8392055;28;19974;-71
2022/08/05 08:46:34;;;;;;;;;;;22.70;99.90;;;;;;8393638;28;19923;-71
2022/08/05 08:50:37;;;;;;;;;;;22.70;99.90;;;;;;8393199;28;19928;-70
2022/08/05 08:54:59;;;;;;;;;;;22.70;99.90;;;;;;8393070;28;19963;-71
2022/08/05 08:59:01;;;;;;;;;;;22.70;99.90;;;;;;8395016;28;19939;-71
2022/08/05 09:03:06;;;;;;;;;;;22.80;99.90;;;;;;8392583;28;20268;-71
2022/08/05 09:07:07;;;;;;;;;;;22.80;99.90;;;;;;8393833;28;19932;-71
2022/08/05 09:11:12;;;;;;;;;;;22.90;99.90;;;;;;8393716;28;19925;-71
2022/08/05 09:15:14;;;;;;;;;;;22.90;99.90;;;;;;8391299;28;19929;-71
2022/08/05 09:19:16;;;;;;;;;;;22.90;99.90;;;;;;8388914;28;20242;-71
2022/08/05 09:23:19;;;;;;;;;;;22.80;99.90;;;;;;8376401;28;19924;-71
2022/08/05 09:27:29;;;;;;;;;;;22.70;99.90;;;;;;8393091;28;19936;-71
2022/08/05 09:32:01;;;;;;;;;;;22.70;99.90;;;;;;8392262;28;19936;-71
2022/08/05 09:36:24;;;;;;;;;;;22.80;99.90;;;;;;8388043;28;20287;-71
2022/08/05 09:40:31;;;;;;;;;;;22.80;99.90;;;;;;8402159;28;19935;-71
2022/08/05 09:44:37;;;;;;;;;;;22.80;99.90;;;;;;8392275;28;20388;-71
2022/08/05 09:48:39;;;;;;;;;;;22.80;99.90;;;;;;8388902;28;19925;-71
2022/08/05 09:52:40;;;;;;;;;;;22.70;99.90;;;;;;8405543;28;19924;-71
2022/08/05 09:56:45;;;;;;;;;;;22.60;99.90;;;;;;8390389;28;19936;-71
2022/08/05 10:01:00;;;;;;;;;;;22.50;99.90;;;;;;8393449;28;20278;-71
2022/08/05 10:05:02;;;;;;;;;;;22.40;99.90;;;;;;8386376;28;19927;-71
2022/08/05 10:09:17;;;;;;;;;;;22.20;99.90;;;;;;8390075;28;19924;-71
2022/08/05 10:13:35;;;;;;;;;;;22.10;99.90;;;;;;8390630;28;19977;-71
2022/08/05 10:18:08;;;;;;;;;;;21.90;99.90;;;;;;8390761;28;19928;-71
2022/08/05 10:22:10;;;;;;;;;;;21.90;99.90;;;;;;8391383;28;19925;-71
2022/08/05 10:26:16;;;;;;;;;;;22.00;99.90;;;;;;8389206;28;19974;-71
2022/08/05 10:30:18;;;;;;;;;;;22.00;99.90;;;;;;8387731;28;19924;-71
2022/08/05 10:34:40;;;;;;;;;;;22.00;99.90;;;;;;8388680;28;21149;-71
2022/08/05 10:38:45;;;;;;;;;;;22.00;99.90;;;;;;8388468;28;19935;-71
2022/08/05 10:42:49;;;;;;;;;;;22.00;99.90;;;;;;8393712;28;19929;-71
2022/08/05 10:46:52;;;;;;;;;;;22.00;99.90;;;;;;8390215;28;19925;-71
2022/08/05 10:50:57;;;;;;;;;;;22.00;99.90;;;;;;8391027;28;19924;-71
2022/08/05 10:55:04;;;;;;;;;;;22.00;99.90;;;;;;8388280;28;20291;-71
2022/08/05 10:59:05;;;;;;;;;;;21.90;99.90;;;;;;8382900;28;19933;-71
2022/08/05 11:03:28;;;;;;;;;;;21.90;99.90;;;;;;8389372;28;19964;-71
2022/08/05 11:07:30;;;;;;;;;;;21.90;99.90;;;;;;8389562;28;19932;-71
2022/08/05 11:11:34;;;;;;;;;;;21.90;99.90;;;;;;8388406;28;20320;-71
2022/08/05 11:16:13;;;;;;;;;;;22.00;99.90;;;;;;8387267;28;19932;-71
2022/08/05 11:20:33;;;;;;;;;;;22.10;99.90;;;;;;8389948;28;20299;-71
2022/08/05 11:24:34;;;;;;;;;;;22.20;99.90;;;;;;8402430;28;19928;-71
2022/08/05 11:28:42;;;;;;;;;;;22.40;99.90;;;;;;8388007;28;19951;-71
2022/08/05 11:32:44;;;;;;;;;;;22.40;99.90;;;;;;8384600;28;19932;-71
2022/08/05 11:36:50;;;;;;;;;;;22.40;99.90;;;;;;8387916;28;20023;-71
2022/08/05 11:40:55;;;;;;;;;;;22.40;99.90;;;;;;8382827;28;19935;-71
2022/08/05 11:45:03;;;;;;;;;;;22.30;99.90;;;;;;8393932;28;20327;-71
2022/08/05 11:49:06;;;;;;;;;;;22.20;99.90;;;;;;8394133;28;19932;-71
2022/08/05 11:53:10;;;;;;;;;;;22.20;99.90;;;;;;8394050;28;19924;-71
2022/08/05 11:57:12;;;;;;;;;;;22.10;99.90;;;;;;8395577;28;19921;-71
2022/08/05 12:01:26;;;;;;;;;;;22.20;99.90;;;;;;8393980;28;19924;-71
2022/08/05 12:05:28;;;;;;;;;;;22.30;99.90;;;;;;8392966;28;20390;-71
2022/08/05 12:09:38;;;;;;;;;;;22.40;99.90;;;;;;8394160;28;19963;-71
2022/08/05 12:13:55;;;;;;;;;;;22.50;99.90;;;;;;8394199;28;19920;-71
2022/08/05 12:17:59;;;;;;;;;;;22.50;99.90;;;;;;8396157;28;19925;-71
2022/08/05 12:22:05;;;;;;;;;;;22.60;99.70;;;;;;8396078;28;19927;-71
2022/08/05 12:26:06;;;;;;;;;;;22.60;99.90;;;;;;8392821;28;19924;-71
2022/08/05 12:30:09;;;;;;;;;;;22.70;99.90;;;;;;8395045;28;19947;-71
2022/08/05 12:34:11;;;;;;;;;;;22.80;99.90;;;;;;8393136;28;19924;-71
2022/08/05 12:38:21;;;;;;;;;;;22.70;99.60;;;;;;8394865;28;19920;-71
2022/08/05 12:42:27;;;;;;;;;;;22.60;98.40;;;;;;8391998;28;19924;-71
2022/08/05 12:46:29;;;;;;;;;;;22.60;99.60;;;;;;8392592;28;19924;-70
2022/08/05 12:50:31;;;;;;;;;;;22.50;99.60;;;;;;8392588;28;19963;-71
2022/08/05 12:54:34;;;;;;;;;;;22.50;99.40;;;;;;8392529;28;19920;-71
2022/08/05 12:58:36;;;;;;;;;;;22.50;99.10;;;;;;8395690;28;19920;-71
2022/08/05 13:02:51;;;;;;;;;;;22.40;99.80;;;;;;8392732;28;19924;-71
2022/08/05 13:06:57;;;;;;;;;;;22.40;99.90;;;;;;8390207;28;19920;-71
2022/08/05 13:10:59;;;;;;;;;;;22.50;99.90;;;;;;8392209;28;19923;-71
2022/08/05 13:15:01;;;;;;;;;;;22.60;99.90;;;;;;8390901;28;19943;-71
2022/08/05 13:19:09;;;;;;;;;;;22.60;99.90;;;;;;8409504;27;19928;-71
2022/08/05 13:23:11;;;;;;;;;;;22.60;99.90;;;;;;8392171;28;20287;-71
2022/08/05 13:27:22;;;;;;;;;;;22.70;99.90;;;;;;8390056;28;19943;-71
2022/08/05 13:31:39;;;;;;;;;;;22.70;99.70;;;;;;8393216;28;19954;-71
2022/08/05 13:36:00;;;;;;;;;;;22.70;99.90;;;;;;8390339;28;20360;-71
2022/08/05 13:40:02;;;;;;;;;;;22.80;99.90;;;;;;8391159;28;19977;-71
2022/08/05 13:44:15;;;;;;;;;;;22.80;99.90;;;;;;8390915;28;19976;-71
2022/08/05 13:48:16;;;;;;;;;;;22.80;99.90;;;;;;8389229;28;20328;-71
2022/08/05 13:52:38;;;;;;;;;;;23.00;99.80;;;;;;8389956;28;20380;-71
2022/08/05 13:56:40;;;;;;;;;;;22.90;98.10;;;;;;8392027;28;19925;-71
2022/08/05 14:00:46;;;;;;;;;;;22.80;99.00;;;;;;8391147;28;19959;-71
2022/08/05 14:09:12;;;;;;;;;;;22.80;98.30;;;;;;8390735;28;19978;-71
2022/08/05 14:13:13;;;;;;;;;;;22.90;99.10;;;;;;8391376;28;19958;-71
2022/08/05 14:17:16;;;;;;;;;;;22.90;98.20;;;;;;8389427;28;20332;-71
2022/08/05 14:21:18;;;;;;;;;;;22.90;98.50;;;;;;8392221;28;20382;-71
2022/08/05 14:25:40;;;;;;;;;;;22.90;98.00;;;;;;8388079;28;20275;-71
2022/08/05 14:29:45;;;;;;;;;;;23.00;98.40;;;;;;8389092;28;19921;-71
2022/08/05 14:33:51;;;;;;;;;;;23.00;98.30;;;;;;8392785;28;19931;-70
2022/08/05 14:38:00;;;;;;;;;;;22.90;98.10;;;;;;8386586;28;19928;-70
2022/08/05 14:42:02;;;;;;;;;;;22.80;97.70;;;;;;8386429;28;19928;-71
2022/08/05 14:46:20;;;;;;;;;;;22.80;97.90;;;;;;8388015;28;19974;-71
2022/08/05 14:50:22;;;;;;;;;;;22.70;97.80;;;;;;8389479;28;19927;-71
2022/08/05 14:54:25;;;;;;;;;;;22.70;97.60;;;;;;8387915;28;19928;-71
2022/08/05 14:58:34;;;;;;;;;;;22.70;97.90;;;;;;8389009;28;19928;-71
2022/08/05 15:02:35;;;;;;;;;;;22.60;97.20;;;;;;8388545;28;19925;-70
2022/08/05 15:06:37;;;;;;;;;;;22.80;97.50;;;;;;8388978;28;19924;-71
2022/08/05 15:10:42;;;;;;;;;;;22.80;97.50;;;;;;8384766;28;20390;-71
2022/08/05 15:14:44;;;;;;;;;;;22.60;98.00;;;;;;8386421;28;19920;-71
2022/08/05 15:18:50;;;;;;;;;;;22.40;97.90;;;;;;8391423;28;19931;-71
2022/08/05 15:22:52;;;;;;;;;;;22.20;98.20;;;;;;8389137;28;19927;-71
2022/08/05 15:26:55;;;;;;;;;;;22.10;98.40;;;;;;8378200;28;19943;-71
2022/08/05 15:30:57;;;;;;;;;;;22.10;98.60;;;;;;8387297;28;19928;-71
2022/08/05 15:34:59;;;;;;;;;;;22.10;98.90;;;;;;8387382;28;19927;-71
2022/08/05 15:39:04;;;;;;;;;;;22.00;99.00;;;;;;8387152;28;19971;-71
2022/08/05 15:43:26;;;;;;;;;;;21.90;99.00;;;;;;8389391;28;19971;-70
2022/08/05 15:47:28;;;;;;;;;;;21.90;98.80;;;;;;8401742;28;19969;-71
2022/08/05 15:51:29;;;;;;;;;;;21.90;98.90;;;;;;8387421;28;22722;-70
2022/08/05 15:55:51;;;;;;;;;;;21.90;98.90;;;;;;8388321;28;20389;-70
2022/08/05 16:00:04;;;;;;;;;;;22.10;98.90;;;;;;8386616;28;20283;-70
2022/08/05 16:04:07;;;;;;;;;;;22.30;99.00;;;;;;8386421;28;20057;-71
2022/08/05 16:08:11;;;;;;;;;;;23.00;99.60;;;;;;8385803;28;19928;-71
2022/08/05 16:12:12;;;;;;;;;;;23.80;99.70;;;;;;8401766;28;19932;-71
2022/08/05 16:16:14;;;;;;;;;;;24.20;99.90;;;;;;8388366;28;19931;-70
2022/08/05 16:20:25;;;;;;;;;;;24.20;99.60;;;;;;8402994;28;19963;-70
2022/08/05 16:24:28;;;;;;;;;;;24.30;99.60;;;;;;8387328;28;19955;-71
2022/08/05 16:28:42;;;;;;;;;;;24.50;99.80;;;;;;8401549;28;20011;-70
2022/08/05 16:32:44;;;;;;;;;;;24.70;99.40;;;;;;8377573;28;19921;-71
2022/08/05 16:36:45;;;;;;;;;;;24.80;99.20;;;;;;8392283;28;19928;-70
2022/08/05 16:40:47;;;;;;;;;;;25.00;99.10;;;;;;8391807;28;20326;-71
2022/08/05 16:44:55;;;;;;;;;;;24.90;98.70;;;;;;8395583;28;19928;-71
2022/08/05 16:48:57;;;;;;;;;;;24.70;98.50;;;;;;8391631;28;19928;-71
2022/08/05 16:52:59;;;;;;;;;;;24.60;98.40;;;;;;8395858;28;19924;-71
2022/08/05 16:57:02;;;;;;;;;;;24.70;98.50;;;;;;8393202;28;19943;-71
2022/08/05 17:01:03;;;;;;;;;;;24.70;98.20;;;;;;8406598;28;19931;-71
2022/08/05 17:05:07;;;;;;;;;;;24.30;97.30;;;;;;8390620;28;19924;-70
2022/08/05 17:09:09;;;;;;;;;;;23.80;96.70;;;;;;8372453;28;19921;-71
2022/08/05 17:13:10;;;;;;;;;;;23.40;95.80;;;;;;8392893;28;19928;-71
2022/08/05 17:17:17;;;;;;;;;;;23.00;96.10;;;;;;8394637;28;19928;-71
2022/08/05 17:21:20;;;;;;;;;;;22.80;95.20;;;;;;8391672;28;19924;-70
2022/08/05 17:25:24;;;;;;;;;;;22.70;95.70;;;;;;8389475;28;19967;-70
2022/08/05 17:29:34;;;;;;;;;;;22.60;95.80;;;;;;8388590;28;20019;-70
2022/08/05 17:33:41;;;;;;;;;;;22.50;95.80;;;;;;8390820;28;19924;-71
2022/08/05 17:37:49;;;;;;;;;;;22.30;95.60;;;;;;8392454;28;19978;-71
2022/08/05 17:41:51;;;;;;;;;;;22.20;95.40;;;;;;8389627;28;20275;-71
2022/08/05 17:46:12;;;;;;;;;;;22.10;95.50;;;;;;8391389;28;20433;-71
2022/08/05 17:50:16;;;;;;;;;;;21.80;94.90;;;;;;8393114;28;19928;-71
2022/08/05 17:54:18;;;;;;;;;;;21.50;94.70;;;;;;8390631;28;19947;-71
2022/08/05 17:58:23;;;;;;;;;;;21.30;94.70;;;;;;8388104;28;20252;-71
2022/08/05 18:02:33;;;;;;;;;;;21.10;94.80;;;;;;8374406;28;19924;-70
2022/08/05 18:06:35;;;;;;;;;;;21.10;94.90;;;;;;8389267;28;19955;-70
2022/08/05 18:10:36;;;;;;;;;;;21.10;95.00;;;;;;8392590;28;19931;-70
2022/08/05 18:14:39;;;;;;;;;;;21.10;94.90;;;;;;8389154;28;19920;-70
2022/08/05 18:18:40;;;;;;;;;;;21.10;94.80;;;;;;8388138;28;20350;-70
2022/08/05 18:22:42;;;;;;;;;;;21.10;94.80;;;;;;8390885;28;19928;-70
2022/08/05 18:26:46;;;;;;;;;;;21.00;94.60;;;;;;8389788;28;20371;-70
2022/08/05 18:30:48;;;;;;;;;;;21.00;94.70;;;;;;8392251;28;19928;-70
2022/08/05 18:34:51;;;;;;;;;;;20.90;94.70;;;;;;8389904;28;19920;-71
2022/08/05 18:38:53;;;;;;;;;;;20.90;94.80;;;;;;8386758;28;20328;-71
2022/08/05 18:42:55;;;;;;;;;;;20.80;94.90;;;;;;8389312;28;19920;-71
2022/08/05 18:46:57;;;;;;;;;;;20.70;94.90;;;;;;8402341;27;20302;-70
2022/08/05 18:55:39;;;;;;;;;;;20.60;95.00;;;;;;8387781;28;19920;-70
2022/08/05 18:59:41;;;;;;;;;;;20.50;95.00;;;;;;8402298;28;19920;-70
2022/08/05 19:04:02;;;;;;;;;;;20.40;95.00;;;;;;8388170;28;24501;-71
2022/08/05 19:08:06;;;;;;;;;;;20.30;95.10;;;;;;8404823;28;19924;-70
2022/08/05 19:12:08;;;;;;;;;;;20.20;95.10;;;;;;8389402;28;19924;-71
2022/08/05 19:16:11;;;;;;;;;;;20.10;95.10;;;;;;8381496;28;20272;-70
2022/08/05 19:20:25;;;;;;;;;;;20.10;95.10;;;;;;8389544;28;19974;-71
2022/08/05 19:24:26;;;;;;;;;;;20.00;95.10;;;;;;8386645;28;19924;-70
2022/08/05 19:28:41;;;;;;;;;;;20.00;95.20;;;;;;8388955;28;20251;-70
2022/08/05 19:32:44;;;;;;;;;;;19.90;95.20;;;;;;8394647;28;20645;-70
2022/08/05 19:36:46;;;;;;;;;;;19.90;95.20;;;;;;8385961;28;19920;-71
2022/08/05 19:40:47;;;;;;;;;;;19.90;95.20;;;;;;8388801;28;19931;-71
2022/08/05 19:44:49;;;;;;;;;;;19.90;95.30;;;;;;8387686;28;19926;-71
2022/08/05 19:48:51;;;;;;;;;;;19.80;95.30;;;;;;8405842;28;19924;-71
2022/08/05 19:52:52;;;;;;;;;;;19.80;95.30;;;;;;8389743;28;19920;-71
2022/08/05 19:56:54;;;;;;;;;;;19.80;95.40;;;;;;8386452;28;19921;-71
2022/08/05 20:00:56;;;;;;;;;;;19.80;95.40;;;;;;8388428;28;19931;-71
2022/08/05 20:04:58;;;;;;;;;;;19.70;95.40;;;;;;8390753;28;20330;-71
2022/08/05 20:09:00;;;;;;;;;;;19.60;95.40;;;;;;8394698;28;19920;-71
2022/08/05 20:13:05;;;;;;;;;;;19.60;95.50;;;;;;8377533;28;20014;-70
2022/08/05 20:17:08;;;;;;;;;;;19.50;95.50;;;;;;8393502;28;19927;-71
2022/08/05 20:26:28;;;;;;;;;;;19.30;95.50;;;;;;8391125;28;19919;-71
2022/08/05 20:30:30;;;;;;;;;;;19.20;95.50;;;;;;8394502;28;20389;-71
2022/08/05 20:34:32;;;;;;;;;;;19.10;95.50;;;;;;8393071;28;19924;-71
2022/08/05 20:38:33;;;;;;;;;;;19.00;95.40;;;;;;8392446;28;19931;-71
2022/08/05 20:42:36;;;;;;;;;;;18.90;95.50;;;;;;8397474;28;20371;-71
2022/08/05 20:46:37;;;;;;;;;;;18.70;95.50;;;;;;8375720;28;19921;-71
2022/08/05 20:50:39;;;;;;;;;;;18.60;95.50;;;;;;8391812;28;19924;-71
2022/08/05 20:54:45;;;;;;;;;;;18.50;95.60;;;;;;8394378;28;20317;-70
2022/08/05 20:59:00;;;;;;;;;;;18.40;95.50;;;;;;8394853;28;19924;-71
2022/08/05 21:03:14;;;;;;;;;;;18.30;95.60;;;;;;8415808;28;19920;-71
2022/08/05 21:07:17;;;;;;;;;;;18.20;95.60;;;;;;8463545;28;19931;-71
2022/08/05 21:11:18;;;;;;;;;;;18.10;95.60;;;;;;8465310;28;19919;-71
2022/08/05 21:15:40;;;;;;;;;;;18.00;95.70;;;;;;8463691;28;19919;-71
2022/08/05 21:19:42;;;;;;;;;;;17.90;95.70;;;;;;8464224;28;19931;-71
2022/08/05 21:28:31;;;;;;;;;;;17.70;95.80;;;;;;8447731;28;19927;-71
2022/08/05 21:32:32;;;;;;;;;;;17.70;95.80;;;;;;8465351;28;19927;-71
2022/08/05 21:36:34;;;;;;;;;;;17.50;95.70;;;;;;8441713;28;20402;-71
2022/08/05 21:40:36;;;;;;;;;;;17.40;95.70;;;;;;8451197;28;19926;-71
2022/08/05 21:44:37;;;;;;;;;;;17.30;95.70;;;;;;8442271;28;19919;-71
2022/08/05 21:48:39;;;;;;;;;;;17.20;95.70;;;;;;8462665;28;20003;-71
2022/08/05 21:52:41;;;;;;;;;;;17.10;95.70;;;;;;8464315;28;19920;-71
2022/08/05 21:56:47;;;;;;;;;;;17.00;95.80;;;;;;8458609;28;19927;-71
2022/08/05 22:16:03;;;;;;;;;;;16.70;95.90;;;;;;8459585;28;20006;-70
2022/08/05 22:20:21;;;;;;;;;;;16.60;95.90;;;;;;8463067;28;19919;-71
2022/08/05 22:28:53;;;;;;;;;;;16.50;96.00;;;;;;8461126;28;20278;-70
2022/08/05 22:32:54;;;;;;;;;;;16.40;96.00;;;;;;8463619;28;19920;-70
2022/08/05 22:36:56;;;;;;;;;;;16.40;96.00;;;;;;8418102;28;19923;-71
2022/08/05 22:40:59;;;;;;;;;;;16.30;96.00;;;;;;8443846;28;20291;-71
2022/08/05 22:45:00;;;;;;;;;;;16.20;96.00;;;;;;8462557;28;19919;-70
2022/08/05 22:49:02;;;;;;;;;;;16.20;96.10;;;;;;8439426;28;20287;-71
2022/08/05 22:53:05;;;;;;;;;;;16.10;96.10;;;;;;8441273;28;19947;-71
2022/08/05 22:57:10;;;;;;;;;;;16.10;96.10;;;;;;8454179;28;19941;-71
2022/08/05 23:01:12;;;;;;;;;;;16.00;96.10;;;;;;8461628;28;19926;-70
2022/08/05 23:05:14;;;;;;;;;;;15.90;96.00;;;;;;8460858;28;19920;-71
2022/08/05 23:09:15;;;;;;;;;;;15.80;96.10;;;;;;8461140;28;19920;-70
2022/08/05 23:23:34;;;;;;;;;;;15.70;96.20;;;;;;8446236;28;19918;-70
2022/08/05 23:27:36;;;;;;;;;;;15.60;96.10;;;;;;8453119;28;19926;-70
2022/08/05 23:31:58;;;;;;;;;;;15.60;96.20;;;;;;8461056;28;19959;-70
2022/08/05 23:36:00;;;;;;;;;;;15.50;96.20;;;;;;8449382;28;19921;-70
2022/08/05 23:40:02;;;;;;;;;;;15.50;96.20;;;;;;8433436;28;19926;-70
2022/08/05 23:44:08;;;;;;;;;;;15.40;96.20;;;;;;8467935;28;20388;-70
2022/08/05 23:48:10;;;;;;;;;;;15.30;96.20;;;;;;8466533;28;19920;-70
2022/08/05 23:52:31;;;;;;;;;;;15.30;96.20;;;;;;8467004;28;19942;-70
2022/08/05 23:56:33;;;;;;;;;;;15.20;96.20;;;;;;8466359;28;19927;-70
